createdAt,value
2023-02-09T00:29:47.749Z,0
2023-02-09T00:30:28.181Z,0
2023-02-09T00:31:08.749Z,0
2023-02-09T00:31:49.193Z,0
2023-02-09T00:32:29.630Z,0
2023-02-09T00:33:10.144Z,0
2023-02-09T00:33:50.601Z,0
2023-02-09T00:34:31.112Z,0
2023-02-09T00:35:11.594Z,0
2023-02-09T00:36:32.553Z,0
2023-02-09T00:43:17.435Z,0
2023-02-09T00:43:57.928Z,0
2023-02-09T00:44:38.465Z,0
2023-02-09T00:45:18.903Z,0
2023-02-09T00:45:59.389Z,0
2023-02-09T00:46:39.852Z,0
2023-02-09T00:47:20.329Z,0
2023-02-09T00:48:00.805Z,0
2023-02-09T00:51:35.277Z,0
2023-02-09T00:52:15.700Z,0
2023-02-09T00:52:56.203Z,0
2023-02-09T00:53:36.714Z,0
2023-02-09T00:54:17.197Z,0
2023-02-09T00:54:57.693Z,0
2023-02-09T00:55:38.184Z,0
2023-02-09T00:56:18.704Z,0
2023-02-09T00:56:59.206Z,0
2023-02-09T00:57:39.665Z,0
2023-02-09T00:58:20.175Z,0
2023-02-09T01:05:05.072Z,0
2023-02-09T01:05:45.481Z,0
2023-02-09T01:06:25.960Z,0
2023-02-09T01:07:06.446Z,0
2023-02-09T01:07:46.931Z,0
2023-02-09T01:09:09.696Z,0
2023-02-09T01:09:50.187Z,0
2023-02-09T01:16:35.072Z,0
2023-02-09T01:17:15.543Z,0
2023-02-09T01:17:56.008Z,0
2023-02-09T01:18:36.502Z,0
2023-02-09T01:19:16.978Z,0
2023-02-09T01:19:57.467Z,0
2023-02-09T01:20:37.978Z,0
2023-02-09T01:21:18.487Z,0
2023-02-09T01:21:58.960Z,0
2023-02-09T01:22:39.434Z,0
2023-02-09T01:23:19.935Z,0
2023-02-09T01:30:45.633Z,0
2023-02-09T01:31:25.872Z,0
2023-02-09T01:32:06.195Z,0
2023-02-09T01:32:46.702Z,0
2023-02-09T01:33:27.155Z,0
2023-02-09T01:34:07.628Z,0
2023-02-09T01:34:48.156Z,0
2023-02-09T01:35:29.841Z,0
2023-02-09T01:36:49.647Z,0
2023-02-09T01:37:30.141Z,0
2023-02-09T01:44:15.091Z,0
2023-02-09T01:44:56.191Z,0
2023-02-09T01:45:36.681Z,0
2023-02-09T01:46:17.248Z,0
2023-02-09T01:46:57.679Z,0
2023-02-09T01:47:38.133Z,0
2023-02-09T01:48:18.621Z,0
2023-02-09T01:48:59.162Z,0
2023-02-09T01:49:39.630Z,0
2023-02-09T01:50:20.134Z,0
2023-02-09T01:57:05.030Z,0
2023-02-09T01:57:45.523Z,0
2023-02-09T01:58:26.044Z,0
2023-02-09T01:59:06.521Z,0
2023-02-09T01:59:47.086Z,0
2023-02-09T02:00:27.520Z,0
2023-02-09T02:01:08.022Z,0
2023-02-09T02:01:48.568Z,0
2023-02-09T02:02:29.115Z,0
2023-02-09T02:03:09.548Z,0
2023-02-09T02:03:50.044Z,0
2023-02-09T02:10:34.932Z,0
2023-02-09T02:11:15.396Z,0
2023-02-09T02:11:55.912Z,0
2023-02-09T02:12:36.398Z,0
2023-02-09T02:13:16.882Z,0
2023-02-09T02:13:57.427Z,0
2023-02-09T02:14:37.909Z,0
2023-02-09T02:15:18.380Z,0
2023-02-09T02:15:58.980Z,0
2023-02-09T02:16:39.349Z,0
2023-02-09T02:17:19.822Z,0
2023-02-09T02:18:00.327Z,0
2023-02-09T02:24:45.141Z,0
2023-02-09T02:25:25.622Z,0
2023-02-09T02:26:07.122Z,0
2023-02-09T02:26:46.554Z,0
2023-02-09T02:27:27.048Z,0
2023-02-09T02:28:07.596Z,0
2023-02-09T02:31:26.878Z,0
2023-02-09T02:32:07.184Z,0
2023-02-09T02:32:47.700Z,0
2023-02-09T02:33:28.176Z,0
2023-02-09T02:34:08.653Z,0
2023-02-09T02:34:49.146Z,0
2023-02-09T02:35:29.620Z,0
2023-02-09T02:36:10.074Z,0
2023-02-09T02:36:50.595Z,0
2023-02-09T02:37:31.054Z,0
2023-02-09T02:38:11.550Z,0
2023-02-09T02:45:36.882Z,0
2023-02-09T02:46:17.426Z,0
2023-02-09T02:46:58.807Z,0
2023-02-09T02:47:39.298Z,0
2023-02-09T02:48:19.796Z,0
2023-02-09T02:49:00.292Z,0
2023-02-09T02:49:40.754Z,0
2023-02-09T02:50:21.286Z,0
2023-02-09T02:51:01.765Z,0
2023-02-09T02:58:18.367Z,0
2023-02-09T02:58:58.747Z,0
2023-02-09T02:59:39.268Z,0
2023-02-09T03:00:19.734Z,0
2023-02-09T03:01:00.212Z,0
2023-02-09T03:01:40.766Z,0
2023-02-09T03:02:21.209Z,0
2023-02-09T03:03:02.478Z,0
2023-02-09T03:03:42.983Z,0
2023-02-09T03:10:27.960Z,0
2023-02-09T03:11:08.514Z,0
2023-02-09T03:11:48.988Z,0
2023-02-09T03:12:29.422Z,0
2023-02-09T03:13:09.917Z,0
2023-02-09T03:13:50.417Z,0
2023-02-09T03:14:30.882Z,0
2023-02-09T03:20:17.639Z,0
2023-02-09T03:20:58.049Z,0
2023-02-09T03:21:38.559Z,0
2023-02-09T03:22:18.976Z,0
2023-02-09T03:22:59.488Z,0
2023-02-09T03:23:39.984Z,0
2023-02-09T03:24:20.430Z,0
2023-02-09T03:25:00.927Z,0
2023-02-09T03:25:41.437Z,0
2023-02-09T03:26:21.919Z,0
2023-02-09T03:27:02.402Z,0
2023-02-09T03:34:27.738Z,0
2023-02-09T03:35:08.251Z,0
2023-02-09T03:35:48.762Z,0
2023-02-09T03:36:29.202Z,0
2023-02-09T03:37:09.640Z,0
2023-02-09T03:37:50.143Z,0
2023-02-09T03:38:30.617Z,0
2023-02-09T03:39:11.134Z,0
2023-02-09T03:39:51.643Z,0
2023-02-09T03:40:32.119Z,0
2023-02-09T03:41:12.601Z,0
2023-02-09T03:47:57.538Z,0
2023-02-09T03:48:38.034Z,0
2023-02-09T03:49:18.489Z,0
2023-02-09T03:49:59.000Z,0
2023-02-09T03:50:39.492Z,0
2023-02-09T03:51:20.035Z,0
2023-02-09T03:52:00.486Z,0
2023-02-09T03:52:40.960Z,0
2023-02-09T03:53:21.469Z,0
2023-02-09T03:54:01.945Z,0
2023-02-09T03:54:42.468Z,0
2023-02-09T04:01:27.378Z,0
2023-02-09T04:02:07.981Z,0
2023-02-09T04:02:48.428Z,0
2023-02-09T04:03:28.892Z,0
2023-02-09T04:04:09.417Z,0
2023-02-09T04:04:49.914Z,0
2023-02-09T04:05:30.394Z,0
2023-02-09T04:06:10.910Z,0
2023-02-09T04:06:51.423Z,0
2023-02-09T04:08:12.396Z,0
2023-02-09T04:14:57.316Z,0
2023-02-09T04:15:37.810Z,0
2023-02-09T04:16:18.347Z,0
2023-02-09T04:16:58.751Z,0
2023-02-09T04:17:39.229Z,0
2023-02-09T04:18:19.681Z,0
2023-02-09T04:19:00.216Z,0
2023-02-09T04:19:40.690Z,0
2023-02-09T04:20:21.213Z,0
2023-02-09T04:21:01.681Z,0
2023-02-09T04:21:42.177Z,0
2023-02-09T04:22:22.766Z,0
2023-02-09T04:28:27.569Z,0
2023-02-09T04:29:08.020Z,0
2023-02-09T04:29:48.488Z,0
2023-02-09T04:30:29.017Z,0
2023-02-09T04:31:09.679Z,0
2023-02-09T04:31:50.032Z,0
2023-02-09T04:32:30.522Z,0
2023-02-09T04:33:11.030Z,0
2023-02-09T04:33:51.544Z,0
2023-02-09T04:34:31.990Z,0
2023-02-09T04:41:57.316Z,0
2023-02-09T04:42:37.851Z,0
2023-02-09T04:43:18.345Z,0
2023-02-09T04:43:58.817Z,0
2023-02-09T04:44:39.297Z,0
2023-02-09T04:45:19.829Z,0
2023-02-09T04:46:00.353Z,0
2023-02-09T04:46:40.795Z,0
2023-02-09T04:47:21.272Z,0
2023-02-09T04:48:01.781Z,0
2023-02-09T04:48:42.313Z,0
2023-02-09T04:56:07.774Z,0
2023-02-09T04:56:48.279Z,0
2023-02-09T04:57:28.814Z,0
2023-02-09T04:58:09.258Z,0
2023-02-09T04:58:49.790Z,0
2023-02-09T04:59:30.283Z,0
2023-02-09T05:00:10.816Z,0
2023-02-09T05:00:51.310Z,0
2023-02-09T05:01:31.889Z,0
2023-02-09T05:02:12.301Z,0
2023-02-09T05:08:57.283Z,0
2023-02-09T05:09:37.791Z,0
2023-02-09T05:10:18.254Z,0
2023-02-09T05:10:58.751Z,0
2023-02-09T05:11:39.256Z,0
2023-02-09T05:12:19.759Z,0
2023-02-09T05:13:00.217Z,0
2023-02-09T05:16:13.973Z,0
2023-02-09T05:16:54.431Z,0
2023-02-09T05:17:34.849Z,0
2023-02-09T05:18:15.328Z,0
2023-02-09T05:18:55.791Z,0
2023-02-09T05:19:36.286Z,0
2023-02-09T05:20:16.763Z,0
2023-02-09T05:20:57.227Z,0
2023-02-09T05:21:37.732Z,0
2023-02-09T05:22:18.216Z,0
2023-02-09T05:29:04.085Z,0
2023-02-09T05:29:44.525Z,0
2023-02-09T05:30:25.030Z,0
2023-02-09T05:31:05.624Z,0
2023-02-09T05:31:46.139Z,0
2023-02-09T05:32:26.495Z,0
2023-02-09T05:33:06.999Z,0
2023-02-09T05:33:47.484Z,0
2023-02-09T05:34:27.952Z,0
2023-02-09T05:35:08.604Z,0
2023-02-09T05:42:33.844Z,0
2023-02-09T05:43:14.360Z,0
2023-02-09T05:43:54.928Z,0
2023-02-09T05:44:35.518Z,0
2023-02-09T05:45:16.005Z,0
2023-02-09T05:45:56.517Z,0
2023-02-09T05:46:37.040Z,0
2023-02-09T05:47:17.593Z,0
2023-02-09T05:47:58.039Z,0
2023-02-09T05:48:38.520Z,0
2023-02-09T06:35:25.909Z,8
2023-02-09T06:36:06.904Z,12
2023-02-09T06:36:47.464Z,12
2023-02-09T06:37:28.275Z,12
2023-02-09T06:38:09.260Z,12
2023-02-09T06:43:34.017Z,28
2023-02-09T06:44:14.695Z,28
2023-02-09T06:44:55.158Z,32
2023-02-09T06:45:35.719Z,36
2023-02-09T06:46:17.368Z,40
2023-02-09T06:46:58.183Z,44
2023-02-09T06:47:38.920Z,48
2023-02-09T06:53:04.342Z,88
2023-02-09T06:53:44.882Z,96
2023-02-09T06:54:25.380Z,100
2023-02-09T06:55:06.094Z,108
2023-02-09T06:55:46.632Z,112
2023-02-09T06:56:27.168Z,116
2023-02-09T06:57:07.733Z,124
2023-02-09T06:57:48.362Z,132
2023-02-09T06:58:28.957Z,136
2023-02-09T07:03:54.423Z,196
2023-02-09T07:04:34.971Z,204
2023-02-09T07:05:15.466Z,216
2023-02-09T07:05:56.002Z,224
2023-02-09T07:06:36.588Z,236
2023-02-09T07:07:17.211Z,252
2023-02-09T07:07:57.864Z,264
2023-02-09T07:08:38.341Z,284
2023-02-09T07:09:19.273Z,304
2023-02-09T07:14:43.923Z,500
2023-02-09T07:15:24.650Z,516
2023-02-09T07:16:05.238Z,560
2023-02-09T07:16:45.883Z,572
2023-02-09T07:17:26.311Z,624
2023-02-09T07:18:07.048Z,652
2023-02-09T07:18:47.646Z,684
2023-02-09T07:22:02.285Z,836
2023-02-09T07:22:41.936Z,884
2023-02-09T07:23:22.548Z,912
2023-02-09T07:24:03.039Z,948
2023-02-09T07:24:43.571Z,936
2023-02-09T07:25:24.214Z,948
2023-02-09T07:26:04.630Z,952
2023-02-09T07:26:45.182Z,964
2023-02-09T07:27:25.772Z,992
2023-02-09T07:28:06.344Z,1016
2023-02-09T07:34:51.693Z,1280
2023-02-09T07:35:32.265Z,1296
2023-02-09T07:36:13.673Z,1320
2023-02-09T07:37:34.515Z,1368
2023-02-09T07:38:15.004Z,1416
2023-02-09T07:38:55.581Z,1428
2023-02-09T07:45:41.722Z,1568
2023-02-09T07:46:22.061Z,1584
2023-02-09T07:47:02.718Z,1608
2023-02-09T07:47:43.421Z,1608
2023-02-09T07:48:23.855Z,1580
2023-02-09T07:49:04.339Z,1568
2023-02-09T07:49:44.859Z,1544
2023-02-09T07:50:25.445Z,1524
2023-02-09T07:51:06.089Z,1548
2023-02-09T07:51:46.496Z,1516
2023-02-09T07:57:11.274Z,1464
2023-02-09T07:57:51.886Z,1376
2023-02-09T07:58:32.451Z,1304
2023-02-09T07:59:13.042Z,1232
2023-02-09T07:59:53.609Z,1232
2023-02-09T08:00:34.173Z,1224
2023-02-09T08:01:14.880Z,1220
2023-02-09T08:01:55.506Z,1220
2023-02-09T08:02:35.982Z,1224
2023-02-09T08:03:16.525Z,1232
2023-02-09T08:10:21.122Z,1240
2023-02-09T08:11:03.437Z,1252
2023-02-09T08:11:45.699Z,1256
2023-02-09T08:12:25.487Z,1252
2023-02-09T08:14:29.560Z,1236
2023-02-09T08:15:10.677Z,1240
2023-02-09T08:15:55.193Z,1236
2023-02-09T08:17:58.960Z,1244
2023-02-09T08:18:40.025Z,1244
2023-02-09T08:19:21.262Z,1236
2023-02-09T08:20:02.422Z,1236
2023-02-09T08:20:43.803Z,1240
2023-02-09T08:25:27.920Z,1236
2023-02-09T08:26:08.521Z,1228
2023-02-09T08:26:49.020Z,1220
2023-02-09T08:27:29.600Z,1204
2023-02-09T08:28:10.279Z,1204
2023-02-09T08:29:31.291Z,1224
2023-02-09T08:30:11.851Z,1216
2023-02-09T08:30:52.512Z,1208
2023-02-09T08:31:33.206Z,1220
2023-02-09T08:32:13.571Z,1236
2023-02-09T08:36:58.236Z,1320
2023-02-09T08:37:38.826Z,1308
2023-02-09T08:38:19.263Z,1296
2023-02-09T08:38:59.944Z,1296
2023-02-09T08:42:15.196Z,1264
2023-02-09T08:42:56.887Z,1284
2023-02-09T08:43:39.271Z,1284
2023-02-09T08:44:20.114Z,1276
2023-02-09T08:47:05.062Z,1268
2023-02-09T08:47:46.164Z,1268
2023-02-09T08:48:28.386Z,1256
2023-02-09T08:49:09.778Z,1232
2023-02-09T08:52:52.071Z,1220
2023-02-09T08:55:14.676Z,1196
2023-02-09T08:55:55.348Z,1204
2023-02-09T08:56:35.878Z,1212
2023-02-09T08:57:20.385Z,1200
2023-02-09T08:57:57.404Z,1196
2023-02-09T09:04:45.147Z,1236
2023-02-09T09:05:25.794Z,1236
2023-02-09T09:06:06.364Z,1224
2023-02-09T09:06:47.130Z,1228
2023-02-09T09:07:27.794Z,1240
2023-02-09T09:08:09.307Z,1252
2023-02-09T09:12:54.130Z,1252
2023-02-09T09:16:09.237Z,1252
2023-02-09T09:16:49.648Z,1268
2023-02-09T09:17:30.205Z,1296
2023-02-09T09:18:10.859Z,1296
2023-02-09T09:18:51.350Z,1300
2023-02-09T09:19:31.958Z,1264
2023-02-09T09:20:13.064Z,1268
2023-02-09T09:24:18.003Z,1296
2023-02-09T09:24:58.929Z,1292
2023-02-09T09:25:39.827Z,1288
2023-02-09T09:26:20.477Z,1272
2023-02-09T09:27:02.540Z,1284
2023-02-09T09:29:20.826Z,1268
2023-02-09T09:31:54.944Z,1264
2023-02-09T09:32:35.451Z,1268
2023-02-09T09:33:16.337Z,1272
2023-02-09T09:33:56.736Z,1276
2023-02-09T09:34:37.563Z,1272
2023-02-09T09:35:18.144Z,1252
2023-02-09T09:35:58.751Z,1248
2023-02-09T09:36:39.293Z,1228
2023-02-09T09:40:05.302Z,1152
2023-02-09T09:40:45.866Z,1184
2023-02-09T09:41:27.147Z,1200
2023-02-09T09:44:47.490Z,1256
2023-02-09T09:45:28.001Z,1260
2023-02-09T09:46:08.453Z,1268
2023-02-09T09:46:48.924Z,1272
2023-02-09T09:47:30.520Z,1280
2023-02-09T09:48:13.119Z,1272
2023-02-09T09:50:16.644Z,1256
2023-02-09T09:50:57.413Z,1240
2023-02-09T09:51:38.131Z,1232
2023-02-09T09:52:19.200Z,1232
2023-02-09T09:53:00.424Z,1224
2023-02-09T09:53:41.684Z,1228
2023-02-09T09:57:06.631Z,1208
2023-02-09T09:57:47.242Z,1208
2023-02-09T09:58:27.784Z,1200
2023-02-09T09:59:08.553Z,1208
2023-02-09T09:59:49.046Z,1204
2023-02-09T10:00:30.495Z,1204
2023-02-09T10:01:11.334Z,1200
2023-02-09T10:04:37.606Z,1204
2023-02-09T10:05:19.633Z,1200
2023-02-09T10:06:00.138Z,1196
2023-02-09T10:06:40.624Z,1192
2023-02-09T10:07:23.578Z,1196
2023-02-09T10:12:38.867Z,1212
2023-02-09T10:13:19.601Z,1208
2023-02-09T10:14:00.275Z,1224
2023-02-09T10:14:41.040Z,1220
2023-02-09T10:15:21.824Z,1216
2023-02-09T10:16:02.623Z,1176
2023-02-09T10:19:29.559Z,1220
2023-02-09T10:22:39.296Z,1240
2023-02-09T10:25:53.378Z,1216
2023-02-09T10:26:33.999Z,1216
2023-02-09T10:27:14.694Z,1212
2023-02-09T10:27:55.602Z,1212
2023-02-09T10:28:36.198Z,1208
2023-02-09T10:29:16.727Z,1196
2023-02-09T10:29:57.417Z,1212
2023-02-09T10:30:37.895Z,1212
2023-02-09T10:35:25.701Z,1244
2023-02-09T10:36:05.920Z,1232
2023-02-09T10:36:47.037Z,1240
2023-02-09T10:37:28.463Z,1252
2023-02-09T10:41:33.696Z,1284
2023-02-09T10:42:14.188Z,1284
2023-02-09T10:42:55.221Z,1272
2023-02-09T10:43:35.932Z,1272
2023-02-09T10:44:16.491Z,1288
2023-02-09T10:44:58.551Z,1312
2023-02-09T10:46:25.009Z,1328
2023-02-09T10:47:06.707Z,1320
2023-02-09T10:47:47.421Z,1316
2023-02-09T10:48:28.950Z,1312
2023-02-09T10:50:41.500Z,1308
2023-02-09T10:56:28.034Z,1284
2023-02-09T11:00:23.899Z,1204
2023-02-09T11:01:04.747Z,1200
2023-02-09T11:01:45.592Z,1200
2023-02-09T11:02:26.108Z,1208
2023-02-09T11:03:06.675Z,1204
2023-02-09T11:04:30.110Z,1204
2023-02-09T11:07:52.963Z,1212
2023-02-09T11:08:35.604Z,1204
2023-02-09T11:09:16.490Z,1212
2023-02-09T11:09:58.167Z,1224
2023-02-09T11:13:12.957Z,1220
2023-02-09T11:13:53.461Z,1224
2023-02-09T11:14:34.449Z,1232
2023-02-09T11:15:14.973Z,1236
2023-02-09T11:15:56.410Z,1228
2023-02-09T11:16:37.695Z,1204
2023-02-09T11:20:58.705Z,1180
2023-02-09T11:21:40.241Z,1184
2023-02-09T11:22:20.861Z,1192
2023-02-09T11:23:01.655Z,1192
2023-02-09T11:24:24.441Z,1184
2023-02-09T11:25:03.547Z,1176
2023-02-09T11:29:48.274Z,1144
2023-02-09T11:30:29.145Z,1132
2023-02-09T11:31:09.776Z,1128
2023-02-09T11:31:52.431Z,1100
2023-02-09T11:32:32.599Z,1092
2023-02-09T11:33:13.509Z,1100
2023-02-09T11:37:18.867Z,1092
2023-02-09T11:43:17.399Z,1160
2023-02-09T11:49:52.776Z,1128
2023-02-09T11:50:33.755Z,1120
2023-02-09T11:51:16.663Z,1124
2023-02-09T11:51:58.264Z,1116
2023-02-09T11:52:42.081Z,1112
2023-02-09T11:53:23.084Z,1100
2023-02-09T12:34:11.485Z,1140
2023-02-09T12:34:52.762Z,1124
2023-02-09T12:35:33.405Z,1100
2023-02-09T12:36:14.138Z,1060
2023-02-09T12:36:54.922Z,1048
2023-02-09T12:37:37.032Z,1048
2023-02-09T12:41:58.251Z,1108
2023-02-09T12:42:37.983Z,1108
2023-02-09T12:43:18.658Z,1112
2023-02-09T12:43:59.145Z,1112
2023-02-09T12:44:39.768Z,1120
2023-02-09T12:45:20.462Z,1100
2023-02-09T12:46:01.308Z,1088
2023-02-09T12:46:42.641Z,1068
2023-02-09T12:50:47.097Z,1044
2023-02-09T12:51:27.644Z,1048
2023-02-09T12:52:09.605Z,1052
2023-02-09T12:52:50.619Z,1052
2023-02-09T12:53:32.669Z,1056
2023-02-09T12:56:16.959Z,1100
2023-02-09T12:56:57.984Z,1104
2023-02-09T12:57:38.270Z,1108
2023-02-09T12:58:18.993Z,1108
2023-02-09T12:58:59.547Z,1100
2023-02-09T12:59:40.455Z,1100
2023-02-09T13:00:21.787Z,1092
2023-02-09T13:03:46.952Z,1092
2023-02-09T13:04:27.088Z,1068
2023-02-09T13:05:08.260Z,1064
2023-02-09T13:05:48.972Z,1048
2023-02-09T13:06:29.724Z,1044
2023-02-09T13:07:10.642Z,1048
2023-02-09T13:07:51.618Z,1036
2023-02-09T13:15:55.119Z,1080
2023-02-09T13:16:37.995Z,1076
2023-02-09T13:17:18.897Z,1084
2023-02-09T13:17:59.452Z,1072
2023-02-09T13:20:05.039Z,1048
2023-02-09T13:23:21.084Z,1032
2023-02-09T13:24:01.014Z,1032
2023-02-09T13:24:41.594Z,1032
2023-02-09T13:25:22.219Z,1040
2023-02-09T13:26:02.669Z,1040
2023-02-09T13:28:08.462Z,1060
2023-02-09T13:28:49.528Z,1052
2023-02-09T13:29:30.098Z,1060
2023-02-09T13:33:47.152Z,1008
2023-02-09T13:34:28.712Z,992
2023-02-09T13:35:10.027Z,976
2023-02-09T13:35:51.385Z,976
2023-02-09T13:37:51.812Z,988
2023-02-09T13:38:33.088Z,988
2023-02-09T13:39:14.548Z,992
2023-02-09T13:39:55.928Z,988
2023-02-09T13:40:38.767Z,996
2023-02-09T13:41:19.717Z,1008
2023-02-09T13:42:01.951Z,1012
2023-02-09T13:44:06.681Z,992
2023-02-09T13:44:47.610Z,988
2023-02-09T13:45:28.661Z,976
2023-02-09T13:46:09.763Z,968
2023-02-09T13:46:50.951Z,968
2023-02-09T13:47:32.106Z,960
2023-02-09T13:49:37.869Z,948
2023-02-09T13:50:18.860Z,952
2023-02-09T13:50:59.892Z,944
2023-02-09T13:51:40.911Z,948
2023-02-09T13:54:26.841Z,924
2023-02-09T13:55:09.110Z,920
2023-02-09T13:55:51.027Z,920
2023-02-09T13:58:36.237Z,908
2023-02-09T13:59:17.281Z,892
2023-02-09T13:59:58.446Z,884
2023-02-09T14:00:39.488Z,880
2023-02-09T14:01:21.407Z,884
2023-02-09T14:02:02.834Z,888
2023-02-09T14:09:06.403Z,856
2023-02-09T14:09:46.911Z,864
2023-02-09T14:10:27.405Z,876
2023-02-09T14:11:07.946Z,876
2023-02-09T14:11:48.892Z,876
2023-02-09T14:12:29.406Z,876
2023-02-09T14:13:10.016Z,876
2023-02-09T14:18:34.783Z,836
2023-02-09T14:19:15.377Z,836
2023-02-09T14:19:56.068Z,832
2023-02-09T14:20:36.493Z,820
2023-02-09T14:21:17.146Z,820
2023-02-09T14:21:57.745Z,808
2023-02-09T14:23:18.853Z,796
2023-02-09T14:23:59.613Z,784
2023-02-09T14:30:05.625Z,768
2023-02-09T14:30:46.164Z,768
2023-02-09T14:31:27.358Z,764
2023-02-09T14:32:08.291Z,764
2023-02-09T14:32:48.884Z,764
2023-02-09T14:33:29.420Z,772
2023-02-09T14:37:08.636Z,756
2023-02-09T14:37:50.103Z,748
2023-02-09T14:38:30.801Z,752
2023-02-09T14:39:11.174Z,752
2023-02-09T14:39:51.781Z,748
2023-02-09T14:40:32.237Z,744
2023-02-09T14:41:12.776Z,736
2023-02-09T14:41:53.581Z,740
2023-02-09T14:46:39.251Z,688
2023-02-09T14:47:19.727Z,680
2023-02-09T14:48:00.251Z,680
2023-02-09T14:48:40.770Z,680
2023-02-09T14:49:21.314Z,680
2023-02-09T14:50:01.861Z,680
2023-02-09T14:50:42.333Z,684
2023-02-09T14:51:22.906Z,684
2023-02-09T14:52:03.588Z,672
2023-02-09T14:57:05.582Z,652
2023-02-09T14:57:46.214Z,656
2023-02-09T14:58:26.849Z,660
2023-02-09T14:59:08.042Z,656
2023-02-09T14:59:48.624Z,652
2023-02-09T15:00:29.298Z,652
2023-02-09T15:01:09.846Z,648
2023-02-09T15:01:50.439Z,644
2023-02-09T15:09:08.996Z,600
2023-02-09T15:09:49.718Z,600
2023-02-09T15:10:30.116Z,588
2023-02-09T15:11:10.674Z,572
2023-02-09T15:11:51.923Z,568
2023-02-09T15:12:33.374Z,572
2023-02-09T15:13:13.760Z,576
2023-02-09T15:18:39.437Z,488
2023-02-09T15:19:19.316Z,476
2023-02-09T15:19:59.842Z,468
2023-02-09T15:20:40.419Z,460
2023-02-09T15:21:21.031Z,456
2023-02-09T15:22:07.202Z,452
2023-02-09T15:22:42.106Z,464
2023-02-09T15:23:22.580Z,468
2023-02-09T15:24:03.173Z,440
2023-02-09T15:24:43.718Z,420
2023-02-09T15:30:08.823Z,372
2023-02-09T15:30:49.813Z,368
2023-02-09T15:31:30.080Z,360
2023-02-09T15:32:10.555Z,356
2023-02-09T15:32:51.118Z,352
2023-02-09T15:33:31.647Z,348
2023-02-09T15:34:13.228Z,352
2023-02-09T15:34:52.703Z,356
2023-02-09T15:35:33.256Z,352
2023-02-09T15:40:58.562Z,344
2023-02-09T15:41:39.106Z,344
2023-02-09T15:42:19.632Z,344
2023-02-09T15:43:00.177Z,336
2023-02-09T15:43:40.717Z,328
2023-02-09T15:44:21.322Z,320
2023-02-09T15:45:01.926Z,300
2023-02-09T15:45:43.475Z,292
2023-02-09T15:51:08.960Z,236
2023-02-09T15:51:50.324Z,232
2023-02-09T15:52:31.700Z,228
2023-02-09T15:53:12.188Z,228
2023-02-09T15:53:52.729Z,220
2023-02-09T15:54:33.258Z,216
2023-02-09T15:55:13.806Z,212
2023-02-09T16:01:31.015Z,168
2023-02-09T16:02:11.716Z,164
2023-02-09T16:02:52.499Z,160
2023-02-09T16:03:32.737Z,152
2023-02-09T16:04:14.583Z,152
2023-02-09T16:04:53.924Z,144
2023-02-09T16:05:34.451Z,144
2023-02-09T16:06:14.958Z,136
2023-02-09T16:06:56.587Z,136
2023-02-09T16:11:40.643Z,108
2023-02-09T16:12:21.079Z,100
2023-02-09T16:13:01.592Z,96
2023-02-09T16:13:42.223Z,96
2023-02-09T16:14:22.710Z,92
2023-02-09T16:15:03.289Z,88
2023-02-09T16:15:43.834Z,84
2023-02-09T16:16:24.406Z,84
2023-02-09T16:17:04.938Z,80
2023-02-09T16:21:57.486Z,60
2023-02-09T16:22:38.195Z,60
2023-02-09T16:23:21.087Z,56
2023-02-09T16:23:59.452Z,56
2023-02-09T16:24:39.971Z,52
2023-02-09T16:25:20.565Z,52
2023-02-09T16:26:01.846Z,52
2023-02-09T16:26:41.870Z,48
2023-02-09T16:32:07.161Z,36
2023-02-09T16:32:47.746Z,36
2023-02-09T16:33:28.264Z,36
2023-02-09T16:34:08.744Z,32
2023-02-09T16:34:49.252Z,32
2023-02-09T16:35:29.773Z,28
2023-02-09T16:36:10.371Z,28
2023-02-09T16:36:50.897Z,28
2023-02-09T16:38:11.914Z,24
2023-02-09T16:44:57.162Z,8
2023-02-09T16:45:37.751Z,8
2023-02-09T16:46:18.259Z,8
2023-02-09T16:46:58.847Z,4
2023-02-09T16:47:39.382Z,8
2023-02-09T16:48:19.931Z,8
2023-02-09T16:49:00.436Z,4
2023-02-09T16:49:41.011Z,4
2023-02-09T16:50:21.588Z,4
2023-02-09T16:51:02.103Z,4
2023-02-09T16:57:07.187Z,0
2023-02-09T16:57:47.741Z,0
2023-02-09T16:58:29.297Z,4
2023-02-09T16:59:08.981Z,4
2023-02-09T16:59:49.448Z,0
2023-02-09T17:00:30.091Z,0
2023-02-09T17:01:10.512Z,0
2023-02-09T17:01:50.980Z,0
2023-02-09T17:02:31.546Z,0
2023-02-09T17:03:11.978Z,0
2023-02-09T17:09:17.390Z,0
2023-02-09T17:09:59.648Z,0
2023-02-09T17:10:40.193Z,0
2023-02-09T17:11:20.782Z,0
2023-02-09T17:12:01.293Z,0
2023-02-09T17:12:41.836Z,0
2023-02-09T17:13:22.406Z,0
2023-02-09T17:16:52.274Z,0
2023-02-09T17:18:13.954Z,0
2023-02-09T17:21:37.401Z,0
2023-02-09T17:22:17.953Z,0
2023-02-09T17:22:58.486Z,0
2023-02-09T17:23:39.043Z,0
2023-02-09T17:24:19.624Z,0
2023-02-09T17:25:00.265Z,0
2023-02-09T17:25:40.767Z,0
2023-02-09T17:26:21.258Z,0
2023-02-09T17:27:01.806Z,0
2023-02-09T17:27:42.343Z,0
2023-02-09T17:33:47.456Z,0
2023-02-09T17:34:28.057Z,0
2023-02-09T17:35:08.590Z,0
2023-02-09T17:36:18.050Z,0
2023-02-09T17:36:30.209Z,0
2023-02-09T17:37:10.155Z,0
2023-02-09T17:37:50.675Z,0
2023-02-09T17:38:31.286Z,0
2023-02-09T17:39:11.762Z,0
2023-02-09T17:39:52.301Z,0
2023-02-09T17:45:58.015Z,0
2023-02-09T17:46:38.547Z,0
2023-02-09T17:47:19.120Z,0
2023-02-09T17:47:59.608Z,0
2023-02-09T17:48:40.115Z,0
2023-02-09T17:49:21.096Z,0
2023-02-09T17:50:01.612Z,0
2023-02-09T17:50:42.105Z,0
2023-02-09T18:37:17.487Z,0
2023-02-09T18:37:58.085Z,0
2023-02-09T18:38:38.580Z,0
2023-02-09T18:39:19.079Z,0
2023-02-09T18:39:59.603Z,0
2023-02-09T18:40:40.316Z,0
2023-02-09T18:41:20.733Z,0
2023-02-09T18:42:01.226Z,0
2023-02-09T18:42:41.712Z,0
2023-02-09T18:49:27.419Z,0
2023-02-09T18:50:07.933Z,0
2023-02-09T18:50:48.436Z,0
2023-02-09T18:53:21.629Z,0
2023-02-09T18:54:02.207Z,0
2023-02-09T18:54:42.630Z,0
2023-02-09T18:55:23.185Z,0
2023-02-09T18:56:03.690Z,0
2023-02-09T18:56:44.211Z,0
2023-02-09T18:57:24.731Z,0
2023-02-09T18:58:05.319Z,0
2023-02-09T18:58:45.820Z,0
2023-02-09T18:59:26.427Z,0
2023-02-09T19:06:11.610Z,0
2023-02-09T19:06:52.180Z,0
2023-02-09T19:07:32.734Z,0
2023-02-09T19:08:13.256Z,0
2023-02-09T19:08:53.714Z,0
2023-02-09T19:09:34.284Z,0
2023-02-09T19:10:14.769Z,0
2023-02-09T19:10:55.286Z,0
2023-02-09T19:11:35.813Z,0
2023-02-09T19:12:16.278Z,0
2023-02-09T19:17:41.165Z,0
2023-02-09T19:18:21.663Z,0
2023-02-09T19:19:02.233Z,0
2023-02-09T19:19:43.630Z,0
2023-02-09T19:20:24.868Z,0
2023-02-09T19:21:04.671Z,0
2023-02-09T19:21:45.231Z,0
2023-02-09T19:22:25.756Z,0
2023-02-09T19:23:06.192Z,0
2023-02-09T19:30:08.402Z,0
2023-02-09T19:30:48.836Z,0
2023-02-09T19:31:29.416Z,0
2023-02-09T19:32:09.841Z,0
2023-02-09T19:32:50.410Z,0
2023-02-09T19:33:30.880Z,0
2023-02-09T19:34:11.416Z,0
2023-02-09T19:34:51.961Z,0
2023-02-09T19:35:32.496Z,0
2023-02-09T19:36:12.965Z,0
2023-02-09T19:41:38.004Z,0
2023-02-09T19:42:18.546Z,0
2023-02-09T19:42:59.105Z,0
2023-02-09T19:43:39.577Z,0
2023-02-09T19:44:20.084Z,0
2023-02-09T19:45:01.744Z,0
2023-02-09T19:45:42.244Z,0
2023-02-09T19:46:22.775Z,0
2023-02-09T19:47:03.296Z,0
2023-02-09T19:53:07.962Z,0
2023-02-09T19:53:48.451Z,0
2023-02-09T19:54:28.969Z,0
2023-02-09T19:55:09.465Z,0
2023-02-09T19:56:31.477Z,0
2023-02-09T19:57:11.959Z,0
2023-02-09T19:57:52.448Z,0
2023-02-09T19:58:32.967Z,0
2023-02-09T20:04:38.130Z,0
2023-02-09T20:05:18.895Z,0
2023-02-09T20:05:59.382Z,0
2023-02-09T20:06:39.882Z,0
2023-02-09T20:07:20.438Z,0
2023-02-09T20:08:00.894Z,0
2023-02-09T20:08:41.441Z,0
2023-02-09T20:09:21.948Z,0
2023-02-09T20:10:02.451Z,0
2023-02-09T20:10:42.967Z,0
2023-02-09T20:18:08.454Z,0
2023-02-09T20:18:48.897Z,0
2023-02-09T20:19:29.406Z,0
2023-02-09T20:20:09.891Z,0
2023-02-09T20:20:50.599Z,0
2023-02-09T20:21:31.078Z,0
2023-02-09T20:22:11.571Z,0
2023-02-09T20:22:52.086Z,0
2023-02-09T20:23:32.592Z,0
2023-02-09T20:24:13.093Z,0
2023-02-09T20:30:18.056Z,0
2023-02-09T20:30:58.577Z,0
2023-02-09T20:31:39.166Z,0
2023-02-09T20:32:19.673Z,0
2023-02-09T20:33:00.879Z,0
2023-02-09T20:33:41.375Z,0
2023-02-09T20:34:21.903Z,0
2023-02-09T20:35:02.363Z,0
2023-02-09T20:35:42.996Z,0
2023-02-09T20:42:28.125Z,0
2023-02-09T20:43:08.633Z,0
2023-02-09T20:43:49.201Z,0
2023-02-09T20:44:29.737Z,0
2023-02-09T20:45:10.278Z,0